sensor_id;sensor_type;location;lat;lon;timestamp;pressure;altitude;pressure_sealevel;temperature;humidity
13695;BME280;6919;52.344;14.518;2023-06-10T00:00:12;100725.28;;;17.17;100.00
13695;BME280;6919;52.344;14.518;2023-06-10T00:02:42;100723.59;;;17.16;100.00
13695;BME280;6919;52.344;14.518;2023-06-10T00:05:12;100721.91;;;17.15;100.00
13695;BME280;6919;52.344;14.518;2023-06-10T00:07:41;100726.38;;;17.23;100.00
13695;BME280;6919;52.344;14.518;2023-06-10T00:10:10;100731.78;;;17.02;100.00
13695;BME280;6919;52.344;14.518;2023-06-10T00:12:38;100732.50;;;17.10;100.00
13695;BME280;6919;52.344;14.518;2023-06-10T00:15:09;100724.66;;;17.01;100.00
13695;BME280;6919;52.344;14.518;2023-06-10T00:17:38;100726.09;;;16.97;100.00
13695;BME280;6919;52.344;14.518;2023-06-10T00:20:09;100729.78;;;16.89;100.00
13695;BME280;6919;52.344;14.518;2023-06-10T00:22:40;100729.78;;;16.89;100.00
13695;BME280;6919;52.344;14.518;2023-06-10T00:25:12;100730.41;;;16.91;100.00
13695;BME280;6919;52.344;14.518;2023-06-10T00:27:40;100721.13;;;16.79;100.00
13695;BME280;6919;52.344;14.518;2023-06-10T00:30:10;100730.66;;;16.75;100.00
13695;BME280;6919;52.344;14.518;2023-06-10T00:32:39;100727.75;;;16.77;100.00
13695;BME280;6919;52.344;14.518;2023-06-10T00:35:07;100726.66;;;16.71;100.00
13695;BME280;6919;52.344;14.518;2023-06-10T00:37:36;100720.47;;;16.77;100.00
13695;BME280;6919;52.344;14.518;2023-06-10T00:40:08;100718.53;;;16.71;100.00
13695;BME280;6919;52.344;14.518;2023-06-10T00:42:36;100724.03;;;16.63;100.00
13695;BME280;6919;52.344;14.518;2023-06-10T00:45:06;100721.44;;;16.70;100.00
13695;BME280;6919;52.344;14.518;2023-06-10T00:47:36;100722.56;;;16.61;100.00
13695;BME280;6919;52.344;14.518;2023-06-10T00:50:06;100727.13;;;16.60;100.00
13695;BME280;6919;52.344;14.518;2023-06-10T00:52:36;100726.31;;;16.60;100.00
13695;BME280;6919;52.344;14.518;2023-06-10T00:55:06;100736.28;;;16.59;100.00
13695;BME280;6919;52.344;14.518;2023-06-10T00:57:36;100736.09;;;16.46;100.00
13695;BME280;6919;52.344;14.518;2023-06-10T01:00:07;100726.97;;;16.47;100.00
13695;BME280;6919;52.344;14.518;2023-06-10T01:02:37;100735.28;;;16.46;100.00
13695;BME280;6919;52.344;14.518;2023-06-10T01:05:06;100744.81;;;16.42;100.00
13695;BME280;6919;52.344;14.518;2023-06-10T01:07:42;100738.00;;;16.46;100.00
13695;BME280;6919;52.344;14.518;2023-06-10T01:10:20;100738.19;;;16.44;100.00
13695;BME280;6919;52.344;14.518;2023-06-10T01:12:58;100739.84;;;16.45;100.00
13695;BME280;6919;52.344;14.518;2023-06-10T01:15:30;100734.25;;;16.47;100.00
13695;BME280;6919;52.344;14.518;2023-06-10T01:18:00;100745.03;;;16.32;100.00
13695;BME280;6919;52.344;14.518;2023-06-10T01:20:31;100744.88;;;16.19;100.00
13695;BME280;6919;52.344;14.518;2023-06-10T01:23:01;100746.38;;;16.22;100.00
13695;BME280;6919;52.344;14.518;2023-06-10T01:25:31;100738.81;;;16.32;100.00
13695;BME280;6919;52.344;14.518;2023-06-10T01:28:10;100744.84;;;16.34;100.00
13695;BME280;6919;52.344;14.518;2023-06-10T01:30:47;100739.75;;;16.24;100.00
13695;BME280;6919;52.344;14.518;2023-06-10T01:33:25;100744.88;;;16.19;100.00
13695;BME280;6919;52.344;14.518;2023-06-10T01:35:59;100739.34;;;16.13;100.00
13695;BME280;6919;52.344;14.518;2023-06-10T01:38:40;100742.53;;;16.16;100.00
13695;BME280;6919;52.344;14.518;2023-06-10T01:41:12;100753.09;;;16.11;100.00
13695;BME280;6919;52.344;14.518;2023-06-10T01:43:43;100746.75;;;16.04;100.00
13695;BME280;6919;52.344;14.518;2023-06-10T01:46:12;100759.44;;;16.04;100.00
13695;BME280;6919;52.344;14.518;2023-06-10T01:48:42;100760.63;;;15.87;100.00
13695;BME280;6919;52.344;14.518;2023-06-10T01:51:10;100760.81;;;16.00;100.00
13695;BME280;6919;52.344;14.518;2023-06-10T01:53:40;100762.22;;;16.10;100.00
13695;BME280;6919;52.344;14.518;2023-06-10T01:56:08;100771.72;;;16.06;100.00
13695;BME280;6919;52.344;14.518;2023-06-10T01:58:36;100768.09;;;15.85;100.00
13695;BME280;6919;52.344;14.518;2023-06-10T02:01:04;100766.28;;;15.77;100.00
13695;BME280;6919;52.344;14.518;2023-06-10T02:03:34;100771.78;;;15.84;100.00
13695;BME280;6919;52.344;14.518;2023-06-10T02:06:03;100774.31;;;15.85;100.00
13695;BME280;6919;52.344;14.518;2023-06-10T02:08:31;100775.72;;;15.81;100.00
13695;BME280;6919;52.344;14.518;2023-06-10T02:11:00;100779.44;;;15.80;100.00
13695;BME280;6919;52.344;14.518;2023-06-10T02:13:29;100775.03;;;15.79;100.00
13695;BME280;6919;52.344;14.518;2023-06-10T02:15:57;100769.44;;;15.81;100.00
13695;BME280;6919;52.344;14.518;2023-06-10T02:18:27;100775.81;;;15.88;100.00
13695;BME280;6919;52.344;14.518;2023-06-10T02:20:56;100775.63;;;15.75;100.00
13695;BME280;6919;52.344;14.518;2023-06-10T02:23:24;100772.78;;;15.68;100.00
13695;BME280;6919;52.344;14.518;2023-06-10T02:25:52;100781.91;;;15.67;100.00
13695;BME280;6919;52.344;14.518;2023-06-10T02:28:21;100789.13;;;15.75;100.00
13695;BME280;6919;52.344;14.518;2023-06-10T02:30:51;100776.50;;;15.67;100.00
13695;BME280;6919;52.344;14.518;2023-06-10T02:33:19;100776.41;;;15.61;100.00
13695;BME280;6919;52.344;14.518;2023-06-10T02:35:47;100785.47;;;15.68;100.00
13695;BME280;6919;52.344;14.518;2023-06-10T02:38:16;100791.72;;;15.68;100.00
13695;BME280;6919;52.344;14.518;2023-06-10T02:40:45;100781.75;;;15.69;100.00
13695;BME280;6919;52.344;14.518;2023-06-10T02:43:13;100786.03;;;15.63;100.00
13695;BME280;6919;52.344;14.518;2023-06-10T02:45:42;100792.47;;;15.62;100.00
13695;BME280;6919;52.344;14.518;2023-06-10T02:48:11;100794.81;;;15.65;100.00
13695;BME280;6919;52.344;14.518;2023-06-10T02:50:39;100789.16;;;15.52;100.00
13695;BME280;6919;52.344;14.518;2023-06-10T02:53:07;100793.19;;;15.56;100.00
13695;BME280;6919;52.344;14.518;2023-06-10T02:55:36;100795.88;;;15.56;100.00
13695;BME280;6919;52.344;14.518;2023-06-10T02:58:05;100804.69;;;15.50;100.00
13695;BME280;6919;52.344;14.518;2023-06-10T03:00:34;100796.22;;;15.53;100.00
13695;BME280;6919;52.344;14.518;2023-06-10T03:03:04;100805.22;;;15.46;100.00
13695;BME280;6919;52.344;14.518;2023-06-10T03:05:32;100806.63;;;15.42;100.00
13695;BME280;6919;52.344;14.518;2023-06-10T03:08:01;100804.06;;;15.48;100.00
13695;BME280;6919;52.344;14.518;2023-06-10T03:10:29;100807.53;;;15.57;100.00
13695;BME280;6919;52.344;14.518;2023-06-10T03:12:59;100807.41;;;15.50;100.00
13695;BME280;6919;52.344;14.518;2023-06-10T03:15:28;100816.19;;;15.52;100.00
13695;BME280;6919;52.344;14.518;2023-06-10T03:18:00;100809.50;;;15.63;100.00
13695;BME280;6919;52.344;14.518;2023-06-10T03:20:30;100812.56;;;15.60;100.00
13695;BME280;6919;52.344;14.518;2023-06-10T03:23:00;100818.75;;;15.68;100.00
13695;BME280;6919;52.344;14.518;2023-06-10T03:25:28;100819.31;;;15.64;100.00
13695;BME280;6919;52.344;14.518;2023-06-10T03:27:57;100824.91;;;15.62;100.00
13695;BME280;6919;52.344;14.518;2023-06-10T03:30:26;100846.34;;;15.64;100.00
13695;BME280;6919;52.344;14.518;2023-06-10T03:32:54;100830.75;;;15.66;100.00
13695;BME280;6919;52.344;14.518;2023-06-10T03:35:23;100818.13;;;15.81;100.00
13695;BME280;6919;52.344;14.518;2023-06-10T03:37:52;100822.16;;;15.85;100.00
13695;BME280;6919;52.344;14.518;2023-06-10T03:40:21;100826.09;;;15.97;100.00
13695;BME280;6919;52.344;14.518;2023-06-10T03:42:49;100825.38;;;16.03;100.00
13695;BME280;6919;52.344;14.518;2023-06-10T03:45:17;100827.91;;;16.04;100.00
13695;BME280;6919;52.344;14.518;2023-06-10T03:47:45;100830.03;;;16.09;100.00
13695;BME280;6919;52.344;14.518;2023-06-10T03:50:15;100824.56;;;16.31;100.00
13695;BME280;6919;52.344;14.518;2023-06-10T03:52:43;100831.56;;;16.26;100.00
13695;BME280;6919;52.344;14.518;2023-06-10T03:55:14;100823.34;;;16.34;100.00
13695;BME280;6919;52.344;14.518;2023-06-10T03:57:43;100822.78;;;16.38;100.00
13695;BME280;6919;52.344;14.518;2023-06-10T04:00:13;100811.72;;;16.48;100.00
13695;BME280;6919;52.344;14.518;2023-06-10T04:02:42;100815.09;;;16.50;100.00
13695;BME280;6919;52.344;14.518;2023-06-10T04:05:16;100827.59;;;16.65;100.00
13695;BME280;6919;52.344;14.518;2023-06-10T04:07:44;100825.06;;;16.78;100.00
13695;BME280;6919;52.344;14.518;2023-06-10T04:10:15;100827.28;;;16.89;100.00
13695;BME280;6919;52.344;14.518;2023-06-10T04:12:43;100831.75;;;16.97;100.00
13695;BME280;6919;52.344;14.518;2023-06-10T04:15:12;100821.50;;;17.13;100.00
13695;BME280;6919;52.344;14.518;2023-06-10T04:17:40;100815.72;;;17.16;100.00
13695;BME280;6919;52.344;14.518;2023-06-10T04:20:10;100818.34;;;17.24;100.00
13695;BME280;6919;52.344;14.518;2023-06-10T04:22:39;100818.44;;;17.16;100.00
13695;BME280;6919;52.344;14.518;2023-06-10T04:25:09;100825.19;;;17.41;100.00
13695;BME280;6919;52.344;14.518;2023-06-10T04:27:39;100820.88;;;17.47;100.00
13695;BME280;6919;52.344;14.518;2023-06-10T04:30:08;100823.72;;;17.60;100.00
13695;BME280;6919;52.344;14.518;2023-06-10T04:32:36;100822.44;;;17.77;100.00
13695;BME280;6919;52.344;14.518;2023-06-10T04:35:06;100818.28;;;17.81;100.00
13695;BME280;6919;52.344;14.518;2023-06-10T04:37:35;100816.63;;;18.08;100.00
13695;BME280;6919;52.344;14.518;2023-06-10T04:40:05;100814.25;;;17.98;100.00
13695;BME280;6919;52.344;14.518;2023-06-10T04:42:34;100813.06;;;18.07;100.00
13695;BME280;6919;52.344;14.518;2023-06-10T04:45:05;100812.97;;;18.22;100.00
13695;BME280;6919;52.344;14.518;2023-06-10T04:47:34;100818.56;;;18.41;100.00
13695;BME280;6919;52.344;14.518;2023-06-10T04:50:03;100811.19;;;18.63;100.00
13695;BME280;6919;52.344;14.518;2023-06-10T04:52:32;100821.06;;;18.36;100.00
13695;BME280;6919;52.344;14.518;2023-06-10T04:55:01;100818.59;;;18.20;100.00
13695;BME280;6919;52.344;14.518;2023-06-10T04:57:29;100824.72;;;18.29;100.00
13695;BME280;6919;52.344;14.518;2023-06-10T04:59:58;100821.22;;;18.69;100.00
13695;BME280;6919;52.344;14.518;2023-06-10T05:02:27;100828.34;;;19.17;100.00
13695;BME280;6919;52.344;14.518;2023-06-10T05:04:56;100820.69;;;19.33;100.00
13695;BME280;6919;52.344;14.518;2023-06-10T05:07:24;100823.25;;;19.80;100.00
13695;BME280;6919;52.344;14.518;2023-06-10T05:09:53;100823.47;;;19.98;100.00
13695;BME280;6919;52.344;14.518;2023-06-10T05:12:21;100823.06;;;20.47;100.00
13695;BME280;6919;52.344;14.518;2023-06-10T05:14:50;100822.88;;;20.29;100.00
13695;BME280;6919;52.344;14.518;2023-06-10T05:17:18;100821.75;;;20.63;100.00
13695;BME280;6919;52.344;14.518;2023-06-10T05:19:48;100825.50;;;20.68;100.00
13695;BME280;6919;52.344;14.518;2023-06-10T05:22:16;100824.81;;;20.99;100.00
13695;BME280;6919;52.344;14.518;2023-06-10T05:24:45;100836.69;;;21.17;100.00
13695;BME280;6919;52.344;14.518;2023-06-10T05:27:13;100832.63;;;21.26;100.00
13695;BME280;6919;52.344;14.518;2023-06-10T05:29:42;100833.16;;;21.79;100.00
13695;BME280;6919;52.344;14.518;2023-06-10T05:32:10;100839.59;;;22.40;100.00
13695;BME280;6919;52.344;14.518;2023-06-10T05:34:38;100835.19;;;21.59;100.00
13695;BME280;6919;52.344;14.518;2023-06-10T05:37:08;100838.69;;;21.72;100.00
13695;BME280;6919;52.344;14.518;2023-06-10T05:39:36;100833.44;;;21.33;100.00
13695;BME280;6919;52.344;14.518;2023-06-10T05:42:07;100834.94;;;20.66;100.00
13695;BME280;6919;52.344;14.518;2023-06-10T05:44:35;100844.41;;;20.57;100.00
13695;BME280;6919;52.344;14.518;2023-06-10T05:47:04;100834.59;;;20.36;100.00
13695;BME280;6919;52.344;14.518;2023-06-10T05:49:33;100831.34;;;20.78;100.00
13695;BME280;6919;52.344;14.518;2023-06-10T05:52:01;100831.66;;;21.14;100.00
13695;BME280;6919;52.344;14.518;2023-06-10T05:54:31;100835.31;;;22.01;100.00
13695;BME280;6919;52.344;14.518;2023-06-10T05:56:59;100835.53;;;22.24;100.00
13695;BME280;6919;52.344;14.518;2023-06-10T05:59:27;100831.94;;;22.24;100.00
13695;BME280;6919;52.344;14.518;2023-06-10T06:01:55;100843.50;;;22.01;100.00
13695;BME280;6919;52.344;14.518;2023-06-10T06:04:24;100837.03;;;22.20;100.00
13695;BME280;6919;52.344;14.518;2023-06-10T06:06:52;100832.81;;;22.24;100.00
13695;BME280;6919;52.344;14.518;2023-06-10T06:09:20;100843.06;;;22.89;100.00
13695;BME280;6919;52.344;14.518;2023-06-10T06:11:50;100848.91;;;22.57;100.00
13695;BME280;6919;52.344;14.518;2023-06-10T06:14:18;100854.63;;;22.92;100.00
13695;BME280;6919;52.344;14.518;2023-06-10T06:16:47;100854.72;;;22.18;100.00
13695;BME280;6919;52.344;14.518;2023-06-10T06:19:15;100853.69;;;22.37;100.00
13695;BME280;6919;52.344;14.518;2023-06-10T06:21:43;100858.59;;;22.28;100.00
13695;BME280;6919;52.344;14.518;2023-06-10T06:24:11;100861.06;;;22.61;100.00
13695;BME280;6919;52.344;14.518;2023-06-10T06:26:40;100867.66;;;22.53;100.00
13695;BME280;6919;52.344;14.518;2023-06-10T06:29:09;100875.13;;;22.82;100.00
13695;BME280;6919;52.344;14.518;2023-06-10T06:31:38;100866.16;;;22.93;100.00
13695;BME280;6919;52.344;14.518;2023-06-10T06:34:06;100874.81;;;23.45;100.00
13695;BME280;6919;52.344;14.518;2023-06-10T06:36:34;100874.63;;;23.28;100.00
13695;BME280;6919;52.344;14.518;2023-06-10T06:39:03;100880.88;;;23.65;100.00
13695;BME280;6919;52.344;14.518;2023-06-10T06:41:31;100892.72;;;23.59;100.00
13695;BME280;6919;52.344;14.518;2023-06-10T06:43:59;100885.19;;;23.25;100.00
13695;BME280;6919;52.344;14.518;2023-06-10T06:46:29;100882.81;;;23.46;100.00
13695;BME280;6919;52.344;14.518;2023-06-10T06:48:57;100890.94;;;23.35;100.00
13695;BME280;6919;52.344;14.518;2023-06-10T06:51:25;100886.16;;;23.30;100.00
13695;BME280;6919;52.344;14.518;2023-06-10T06:53:54;100887.53;;;23.69;100.00
13695;BME280;6919;52.344;14.518;2023-06-10T06:56:25;100901.59;;;24.66;100.00
13695;BME280;6919;52.344;14.518;2023-06-10T06:58:55;100901.00;;;25.49;100.00
13695;BME280;6919;52.344;14.518;2023-06-10T07:01:24;100899.28;;;25.88;97.74
13695;BME280;6919;52.344;14.518;2023-06-10T07:03:54;100909.28;;;25.66;88.80
13695;BME280;6919;52.344;14.518;2023-06-10T07:06:22;100915.66;;;25.83;77.43
13695;BME280;6919;52.344;14.518;2023-06-10T07:08:50;100926.94;;;26.26;67.74
13695;BME280;6919;52.344;14.518;2023-06-10T07:11:18;100932.09;;;26.06;66.16
13695;BME280;6919;52.344;14.518;2023-06-10T07:13:47;100922.34;;;26.15;68.65
13695;BME280;6919;52.344;14.518;2023-06-10T07:16:15;100931.19;;;26.50;62.85
13695;BME280;6919;52.344;14.518;2023-06-10T07:18:44;100930.28;;;26.45;66.11
13695;BME280;6919;52.344;14.518;2023-06-10T07:21:13;100917.31;;;25.96;64.47
13695;BME280;6919;52.344;14.518;2023-06-10T07:23:42;100922.16;;;26.05;60.67
13695;BME280;6919;52.344;14.518;2023-06-10T07:26:12;100928.75;;;26.04;60.51
13695;BME280;6919;52.344;14.518;2023-06-10T07:28:40;100919.84;;;26.14;60.61
13695;BME280;6919;52.344;14.518;2023-06-10T07:31:09;100920.09;;;25.56;70.92
13695;BME280;6919;52.344;14.518;2023-06-10T07:33:39;100933.34;;;26.32;61.56
13695;BME280;6919;52.344;14.518;2023-06-10T07:36:09;100925.91;;;26.60;61.50
13695;BME280;6919;52.344;14.518;2023-06-10T07:38:39;100934.09;;;26.93;60.14
13695;BME280;6919;52.344;14.518;2023-06-10T07:41:09;100928.19;;;27.01;56.34
13695;BME280;6919;52.344;14.518;2023-06-10T07:43:38;100921.72;;;27.12;55.27
13695;BME280;6919;52.344;14.518;2023-06-10T07:46:06;100935.94;;;26.88;55.53
13695;BME280;6919;52.344;14.518;2023-06-10T07:48:34;100937.50;;;27.81;52.07
13695;BME280;6919;52.344;14.518;2023-06-10T07:51:03;100940.66;;;27.68;50.52
13695;BME280;6919;52.344;14.518;2023-06-10T07:53:32;100935.50;;;27.50;50.36
13695;BME280;6919;52.344;14.518;2023-06-10T07:56:02;100930.28;;;26.94;50.10
13695;BME280;6919;52.344;14.518;2023-06-10T07:58:30;100939.03;;;26.91;52.88
13695;BME280;6919;52.344;14.518;2023-06-10T08:00:59;100934.31;;;27.46;50.96
13695;BME280;6919;52.344;14.518;2023-06-10T08:03:27;100937.38;;;27.28;50.59
13695;BME280;6919;52.344;14.518;2023-06-10T08:05:56;100928.97;;;27.35;50.03
13695;BME280;6919;52.344;14.518;2023-06-10T08:08:26;100927.47;;;27.27;49.76
13695;BME280;6919;52.344;14.518;2023-06-10T08:10:54;100925.38;;;27.18;51.14
13695;BME280;6919;52.344;14.518;2023-06-10T08:13:24;100925.50;;;27.06;52.65
13695;BME280;6919;52.344;14.518;2023-06-10T08:15:52;100934.91;;;27.10;52.28
13695;BME280;6919;52.344;14.518;2023-06-10T08:18:22;100936.19;;;27.84;49.79
13695;BME280;6919;52.344;14.518;2023-06-10T08:20:50;100938.47;;;28.19;50.31
13695;BME280;6919;52.344;14.518;2023-06-10T08:23:18;100943.50;;;28.53;45.89
13695;BME280;6919;52.344;14.518;2023-06-10T08:25:47;100945.13;;;28.49;43.70
13695;BME280;6919;52.344;14.518;2023-06-10T08:28:15;100945.06;;;28.76;44.14
13695;BME280;6919;52.344;14.518;2023-06-10T08:30:45;100949.97;;;28.69;42.78
13695;BME280;6919;52.344;14.518;2023-06-10T08:33:14;100952.97;;;28.62;42.03
13695;BME280;6919;52.344;14.518;2023-06-10T08:35:42;100946.44;;;28.78;41.68
13695;BME280;6919;52.344;14.518;2023-06-10T08:38:10;100948.34;;;29.04;41.78
13695;BME280;6919;52.344;14.518;2023-06-10T08:40:39;100950.81;;;28.69;41.21
13695;BME280;6919;52.344;14.518;2023-06-10T08:43:15;100950.13;;;28.26;41.12
13695;BME280;6919;52.344;14.518;2023-06-10T08:45:49;100950.22;;;28.62;41.92
13695;BME280;6919;52.344;14.518;2023-06-10T08:48:21;100950.00;;;28.74;40.68
13695;BME280;6919;52.344;14.518;2023-06-10T08:50:51;100954.66;;;28.68;40.97
13695;BME280;6919;52.344;14.518;2023-06-10T08:53:20;100949.97;;;28.37;41.68
13695;BME280;6919;52.344;14.518;2023-06-10T08:55:51;100961.03;;;28.69;42.01
13695;BME280;6919;52.344;14.518;2023-06-10T08:58:20;100961.63;;;28.76;42.38
13695;BME280;6919;52.344;14.518;2023-06-10T09:00:50;100960.00;;;28.80;40.99
13695;BME280;6919;52.344;14.518;2023-06-10T09:03:19;100958.03;;;28.17;42.65
13695;BME280;6919;52.344;14.518;2023-06-10T09:05:48;100950.94;;;28.53;41.70
13695;BME280;6919;52.344;14.518;2023-06-10T09:08:18;100963.78;;;28.42;42.05
13695;BME280;6919;52.344;14.518;2023-06-10T09:10:47;100958.78;;;28.08;41.69
13695;BME280;6919;52.344;14.518;2023-06-10T09:13:15;100961.69;;;28.23;44.01
13695;BME280;6919;52.344;14.518;2023-06-10T09:15:45;100957.13;;;28.38;41.43
13695;BME280;6919;52.344;14.518;2023-06-10T09:18:17;100962.22;;;28.25;41.31
13695;BME280;6919;52.344;14.518;2023-06-10T09:20:45;100964.06;;;28.14;41.20
13695;BME280;6919;52.344;14.518;2023-06-10T09:23:15;100951.22;;;27.76;41.53
13695;BME280;6919;52.344;14.518;2023-06-10T09:25:44;100959.53;;;27.81;41.72
13695;BME280;6919;52.344;14.518;2023-06-10T09:28:15;100964.19;;;27.97;43.03
13695;BME280;6919;52.344;14.518;2023-06-10T09:30:44;100966.56;;;28.16;42.56
13695;BME280;6919;52.344;14.518;2023-06-10T09:33:15;100968.56;;;28.20;42.09
13695;BME280;6919;52.344;14.518;2023-06-10T09:35:49;100968.13;;;28.06;42.88
13695;BME280;6919;52.344;14.518;2023-06-10T09:38:21;100973.13;;;28.09;42.01
13695;BME280;6919;52.344;14.518;2023-06-10T09:40:51;100967.56;;;28.31;41.98
13695;BME280;6919;52.344;14.518;2023-06-10T09:43:20;100972.97;;;28.48;42.94
13695;BME280;6919;52.344;14.518;2023-06-10T09:45:50;100963.75;;;28.64;44.25
13695;BME280;6919;52.344;14.518;2023-06-10T09:48:20;100967.56;;;28.94;41.86
13695;BME280;6919;52.344;14.518;2023-06-10T09:50:50;100965.19;;;29.08;41.61
13695;BME280;6919;52.344;14.518;2023-06-10T09:53:18;100957.31;;;28.90;41.44
13695;BME280;6919;52.344;14.518;2023-06-10T09:55:48;100966.03;;;28.72;41.86
13695;BME280;6919;52.344;14.518;2023-06-10T09:58:16;100969.09;;;29.12;41.04
13695;BME280;6919;52.344;14.518;2023-06-10T10:00:52;100987.63;;;28.85;43.04
13695;BME280;6919;52.344;14.518;2023-06-10T10:03:22;100976.97;;;28.62;41.99
13695;BME280;6919;52.344;14.518;2023-06-10T10:05:58;100970.09;;;28.38;43.54
13695;BME280;6919;52.344;14.518;2023-06-10T10:08:27;100979.47;;;28.37;43.35
13695;BME280;6919;52.344;14.518;2023-06-10T10:10:58;100973.00;;;28.26;42.51
13695;BME280;6919;52.344;14.518;2023-06-10T10:13:27;100976.75;;;27.88;44.03
13695;BME280;6919;52.344;14.518;2023-06-10T10:16:00;100971.94;;;27.79;43.93
13695;BME280;6919;52.344;14.518;2023-06-10T10:18:31;100972.50;;;28.02;43.86
13695;BME280;6919;52.344;14.518;2023-06-10T10:21:07;100971.34;;;27.98;44.37
13695;BME280;6919;52.344;14.518;2023-06-10T10:23:53;100968.59;;;27.98;43.60
13695;BME280;6919;52.344;14.518;2023-06-10T10:26:23;100964.91;;;28.15;44.27
13695;BME280;6919;52.344;14.518;2023-06-10T10:29:07;100960.41;;;28.35;43.25
13695;BME280;6919;52.344;14.518;2023-06-10T10:31:42;100963.22;;;28.40;44.86
13695;BME280;6919;52.344;14.518;2023-06-10T10:34:16;100963.78;;;28.69;43.52
13695;BME280;6919;52.344;14.518;2023-06-10T10:36:51;100956.88;;;28.40;42.55
13695;BME280;6919;52.344;14.518;2023-06-10T10:39:20;100955.13;;;28.29;43.94
13695;BME280;6919;52.344;14.518;2023-06-10T10:41:49;100951.31;;;28.35;44.27
13695;BME280;6919;52.344;14.518;2023-06-10T10:44:21;100950.00;;;28.42;46.11
13695;BME280;6919;52.344;14.518;2023-06-10T10:46:51;100948.03;;;28.38;44.71
13695;BME280;6919;52.344;14.518;2023-06-10T10:49:22;100948.66;;;28.45;45.93
13695;BME280;6919;52.344;14.518;2023-06-10T10:52:00;100952.00;;;27.93;45.44
13695;BME280;6919;52.344;14.518;2023-06-10T10:54:29;100959.28;;;27.83;46.71
13695;BME280;6919;52.344;14.518;2023-06-10T10:57:17;100951.47;;;27.75;48.28
13695;BME280;6919;52.344;14.518;2023-06-10T10:59:55;100957.63;;;28.03;47.27
13695;BME280;6919;52.344;14.518;2023-06-10T11:02:37;100953.66;;;28.48;49.79
13695;BME280;6919;52.344;14.518;2023-06-10T11:05:12;100951.19;;;28.83;47.91
13695;BME280;6919;52.344;14.518;2023-06-10T11:07:53;100946.81;;;28.92;45.33
13695;BME280;6919;52.344;14.518;2023-06-10T11:10:30;100943.75;;;28.83;45.65
13695;BME280;6919;52.344;14.518;2023-06-10T11:12:59;100957.50;;;29.10;46.57
13695;BME280;6919;52.344;14.518;2023-06-10T11:15:29;100948.69;;;29.18;46.41
13695;BME280;6919;52.344;14.518;2023-06-10T11:18:13;100943.75;;;29.25;45.46
13695;BME280;6919;52.344;14.518;2023-06-10T11:20:53;100945.06;;;29.12;45.87
13695;BME280;6919;52.344;14.518;2023-06-10T11:23:38;100943.84;;;28.98;47.83
13695;BME280;6919;52.344;14.518;2023-06-10T11:26:30;100937.09;;;29.21;47.12
13695;BME280;6919;52.344;14.518;2023-06-10T11:29:07;100931.53;;;29.16;47.87
13695;BME280;6919;52.344;14.518;2023-06-10T11:31:44;100934.25;;;29.57;45.44
13695;BME280;6919;52.344;14.518;2023-06-10T11:34:13;100943.34;;;29.58;47.08
13695;BME280;6919;52.344;14.518;2023-06-10T11:36:43;100942.22;;;29.54;44.39
13695;BME280;6919;52.344;14.518;2023-06-10T11:39:14;100943.75;;;29.91;44.20
13695;BME280;6919;52.344;14.518;2023-06-10T11:41:42;100933.75;;;29.65;42.73
13695;BME280;6919;52.344;14.518;2023-06-10T11:44:13;100936.78;;;29.64;43.38
13695;BME280;6919;52.344;14.518;2023-06-10T11:46:48;100931.25;;;29.64;44.52
13695;BME280;6919;52.344;14.518;2023-06-10T11:49:17;100931.81;;;29.76;43.68
13695;BME280;6919;52.344;14.518;2023-06-10T11:51:45;100930.94;;;29.60;43.76
13695;BME280;6919;52.344;14.518;2023-06-10T11:54:20;100931.59;;;29.82;43.22
13695;BME280;6919;52.344;14.518;2023-06-10T11:56:48;100934.97;;;30.14;43.61
13695;BME280;6919;52.344;14.518;2023-06-10T11:59:17;100923.03;;;29.99;41.74
13695;BME280;6919;52.344;14.518;2023-06-10T12:01:46;100922.22;;;30.03;44.13
13695;BME280;6919;52.344;14.518;2023-06-10T12:04:16;100931.63;;;30.12;42.29
13695;BME280;6919;52.344;14.518;2023-06-10T12:06:47;100929.19;;;30.56;40.20
13695;BME280;6919;52.344;14.518;2023-06-10T12:09:22;100926.41;;;30.21;41.08
13695;BME280;6919;52.344;14.518;2023-06-10T12:11:57;100933.63;;;30.27;41.41
13695;BME280;6919;52.344;14.518;2023-06-10T12:14:53;100922.81;;;30.55;40.33
13695;BME280;6919;52.344;14.518;2023-06-10T12:17:36;100926.97;;;30.53;40.13
13695;BME280;6919;52.344;14.518;2023-06-10T12:20:07;100924.22;;;30.88;39.95
13695;BME280;6919;52.344;14.518;2023-06-10T12:22:38;100919.78;;;30.67;39.41
13695;BME280;6919;52.344;14.518;2023-06-10T12:25:09;100906.50;;;30.29;40.28
13695;BME280;6919;52.344;14.518;2023-06-10T12:27:50;100914.81;;;30.74;40.56
13695;BME280;6919;52.344;14.518;2023-06-10T12:30:22;100905.34;;;31.00;39.38
13695;BME280;6919;52.344;14.518;2023-06-10T12:32:52;100895.31;;;31.19;37.66
13695;BME280;6919;52.344;14.518;2023-06-10T12:35:22;100898.00;;;31.44;33.94
13695;BME280;6919;52.344;14.518;2023-06-10T12:37:56;100900.38;;;30.97;33.24
13695;BME280;6919;52.344;14.518;2023-06-10T12:40:30;100899.56;;;30.87;33.05
13695;BME280;6919;52.344;14.518;2023-06-10T12:43:00;100902.56;;;31.00;33.27
13695;BME280;6919;52.344;14.518;2023-06-10T12:45:29;100897.81;;;31.31;33.59
13695;BME280;6919;52.344;14.518;2023-06-10T12:48:06;100890.75;;;31.53;33.45
13695;BME280;6919;52.344;14.518;2023-06-10T12:50:37;100882.28;;;32.22;33.62
13695;BME280;6919;52.344;14.518;2023-06-10T12:53:06;100894.69;;;32.96;32.70
13695;BME280;6919;52.344;14.518;2023-06-10T12:55:36;100878.53;;;33.46;31.16
13695;BME280;6919;52.344;14.518;2023-06-10T12:58:05;100888.19;;;33.72;30.31
13695;BME280;6919;52.344;14.518;2023-06-10T13:00:33;100888.41;;;34.31;27.90